sensor_id;sensor_type;location;lat;lon;timestamp;temperature;humidity
4509;DHT22;2267;48.816;9.230;2023-04-25T00:00:25;12.60;94.90
4509;DHT22;2267;48.816;9.230;2023-04-25T00:02:52;12.60;94.90
4509;DHT22;2267;48.816;9.230;2023-04-25T00:05:19;12.60;95.00
4509;DHT22;2267;48.816;9.230;2023-04-25T00:07:47;12.60;94.80
4509;DHT22;2267;48.816;9.230;2023-04-25T00:10:14;12.60;94.90
4509;DHT22;2267;48.816;9.230;2023-04-25T00:12:41;12.60;95.00
4509;DHT22;2267;48.816;9.230;2023-04-25T00:15:09;12.60;95.00
4509;DHT22;2267;48.816;9.230;2023-04-25T00:17:36;12.60;95.40
4509;DHT22;2267;48.816;9.230;2023-04-25T00:20:06;12.60;95.20
4509;DHT22;2267;48.816;9.230;2023-04-25T00:22:35;12.60;95.10
4509;DHT22;2267;48.816;9.230;2023-04-25T00:25:05;12.60;95.20
4509;DHT22;2267;48.816;9.230;2023-04-25T00:27:33;12.60;95.40
4509;DHT22;2267;48.816;9.230;2023-04-25T00:30:00;12.60;95.60
4509;DHT22;2267;48.816;9.230;2023-04-25T00:32:27;12.60;95.60
4509;DHT22;2267;48.816;9.230;2023-04-25T00:34:54;12.60;95.70
4509;DHT22;2267;48.816;9.230;2023-04-25T00:37:22;12.60;95.60
4509;DHT22;2267;48.816;9.230;2023-04-25T00:39:50;12.60;95.80
4509;DHT22;2267;48.816;9.230;2023-04-25T00:42:17;12.60;95.90
4509;DHT22;2267;48.816;9.230;2023-04-25T00:44:45;12.60;95.70
4509;DHT22;2267;48.816;9.230;2023-04-25T00:47:12;12.60;95.20
4509;DHT22;2267;48.816;9.230;2023-04-25T00:49:39;12.60;95.30
4509;DHT22;2267;48.816;9.230;2023-04-25T00:52:05;12.50;95.20
4509;DHT22;2267;48.816;9.230;2023-04-25T00:54:32;12.60;95.30
4509;DHT22;2267;48.816;9.230;2023-04-25T00:56:59;12.60;94.90
4509;DHT22;2267;48.816;9.230;2023-04-25T00:59:28;12.50;95.00
4509;DHT22;2267;48.816;9.230;2023-04-25T01:01:56;12.50;94.90
4509;DHT22;2267;48.816;9.230;2023-04-25T01:04:23;12.50;94.90
4509;DHT22;2267;48.816;9.230;2023-04-25T01:06:51;12.50;94.90
4509;DHT22;2267;48.816;9.230;2023-04-25T01:09:19;12.40;94.70
4509;DHT22;2267;48.816;9.230;2023-04-25T01:11:46;12.40;94.80
4509;DHT22;2267;48.816;9.230;2023-04-25T01:14:12;12.40;94.90
4509;DHT22;2267;48.816;9.230;2023-04-25T01:16:39;12.40;94.90
4509;DHT22;2267;48.816;9.230;2023-04-25T01:19:10;12.40;94.80
4509;DHT22;2267;48.816;9.230;2023-04-25T01:21:40;12.40;95.00
4509;DHT22;2267;48.816;9.230;2023-04-25T01:24:07;12.40;94.90
4509;DHT22;2267;48.816;9.230;2023-04-25T01:26:35;12.30;95.00
4509;DHT22;2267;48.816;9.230;2023-04-25T01:29:04;12.30;95.40
4509;DHT22;2267;48.816;9.230;2023-04-25T01:31:32;12.30;95.30
4509;DHT22;2267;48.816;9.230;2023-04-25T01:34:00;12.30;95.50
4509;DHT22;2267;48.816;9.230;2023-04-25T01:36:26;12.30;95.60
4509;DHT22;2267;48.816;9.230;2023-04-25T01:38:53;12.30;95.60
4509;DHT22;2267;48.816;9.230;2023-04-25T01:41:21;12.30;95.40
4509;DHT22;2267;48.816;9.230;2023-04-25T01:43:50;12.30;95.30
4509;DHT22;2267;48.816;9.230;2023-04-25T01:46:17;12.30;95.50
4509;DHT22;2267;48.816;9.230;2023-04-25T01:48:45;12.30;95.40
4509;DHT22;2267;48.816;9.230;2023-04-25T01:51:12;12.30;95.20
4509;DHT22;2267;48.816;9.230;2023-04-25T01:53:39;12.30;95.30
4509;DHT22;2267;48.816;9.230;2023-04-25T01:56:06;12.30;95.30
4509;DHT22;2267;48.816;9.230;2023-04-25T01:58:33;12.20;95.40
4509;DHT22;2267;48.816;9.230;2023-04-25T02:01:00;12.20;95.50
4509;DHT22;2267;48.816;9.230;2023-04-25T02:03:27;12.20;95.40
4509;DHT22;2267;48.816;9.230;2023-04-25T02:05:54;12.20;95.70
4509;DHT22;2267;48.816;9.230;2023-04-25T02:08:21;12.20;95.50
4509;DHT22;2267;48.816;9.230;2023-04-25T02:10:47;12.20;95.50
4509;DHT22;2267;48.816;9.230;2023-04-25T02:13:14;12.20;95.50
4509;DHT22;2267;48.816;9.230;2023-04-25T02:15:41;12.30;95.50
4509;DHT22;2267;48.816;9.230;2023-04-25T02:18:08;12.30;95.70
4509;DHT22;2267;48.816;9.230;2023-04-25T02:20:37;12.30;95.70
4509;DHT22;2267;48.816;9.230;2023-04-25T02:23:03;12.30;95.70
4509;DHT22;2267;48.816;9.230;2023-04-25T02:25:30;12.30;95.80
4509;DHT22;2267;48.816;9.230;2023-04-25T02:27:57;12.30;95.70
4509;DHT22;2267;48.816;9.230;2023-04-25T02:30:24;12.30;95.60
4509;DHT22;2267;48.816;9.230;2023-04-25T02:32:51;12.20;95.50
4509;DHT22;2267;48.816;9.230;2023-04-25T02:35:18;12.30;95.60
4509;DHT22;2267;48.816;9.230;2023-04-25T02:37:45;12.20;95.70
4509;DHT22;2267;48.816;9.230;2023-04-25T02:40:12;12.20;95.70
4509;DHT22;2267;48.816;9.230;2023-04-25T02:42:39;12.20;95.80
4509;DHT22;2267;48.816;9.230;2023-04-25T02:45:06;12.20;95.90
4509;DHT22;2267;48.816;9.230;2023-04-25T02:47:33;12.20;95.90
4509;DHT22;2267;48.816;9.230;2023-04-25T02:49:59;12.20;96.00
4509;DHT22;2267;48.816;9.230;2023-04-25T02:52:26;12.20;96.10
4509;DHT22;2267;48.816;9.230;2023-04-25T02:54:53;12.20;96.30
4509;DHT22;2267;48.816;9.230;2023-04-25T02:57:20;12.20;96.30
4509;DHT22;2267;48.816;9.230;2023-04-25T02:59:47;12.20;96.40
4509;DHT22;2267;48.816;9.230;2023-04-25T03:02:14;12.10;96.30
4509;DHT22;2267;48.816;9.230;2023-04-25T03:04:41;12.10;96.40
4509;DHT22;2267;48.816;9.230;2023-04-25T03:07:08;12.20;96.30
4509;DHT22;2267;48.816;9.230;2023-04-25T03:09:35;12.20;96.30
4509;DHT22;2267;48.816;9.230;2023-04-25T03:12:02;12.20;96.20
4509;DHT22;2267;48.816;9.230;2023-04-25T03:14:29;12.20;96.40
4509;DHT22;2267;48.816;9.230;2023-04-25T03:16:56;12.20;96.50
4509;DHT22;2267;48.816;9.230;2023-04-25T03:19:23;12.20;96.60
4509;DHT22;2267;48.816;9.230;2023-04-25T03:21:49;12.20;96.50
4509;DHT22;2267;48.816;9.230;2023-04-25T03:24:16;12.20;96.60
4509;DHT22;2267;48.816;9.230;2023-04-25T03:26:43;12.20;96.80
4509;DHT22;2267;48.816;9.230;2023-04-25T03:29:10;12.20;96.30
4509;DHT22;2267;48.816;9.230;2023-04-25T03:31:37;12.10;96.20
4509;DHT22;2267;48.816;9.230;2023-04-25T03:34:04;12.10;96.20
4509;DHT22;2267;48.816;9.230;2023-04-25T03:36:30;12.10;96.40
4509;DHT22;2267;48.816;9.230;2023-04-25T03:38:57;12.10;96.60
4509;DHT22;2267;48.816;9.230;2023-04-25T03:41:24;12.00;96.90
4509;DHT22;2267;48.816;9.230;2023-04-25T03:43:51;12.00;97.20
4509;DHT22;2267;48.816;9.230;2023-04-25T03:46:18;12.00;97.20
4509;DHT22;2267;48.816;9.230;2023-04-25T03:48:45;12.00;97.20
4509;DHT22;2267;48.816;9.230;2023-04-25T03:51:12;12.00;97.40
4509;DHT22;2267;48.816;9.230;2023-04-25T03:53:39;12.00;97.50
4509;DHT22;2267;48.816;9.230;2023-04-25T03:56:06;12.00;97.50
4509;DHT22;2267;48.816;9.230;2023-04-25T03:58:33;12.00;97.40
4509;DHT22;2267;48.816;9.230;2023-04-25T04:01:01;12.00;97.30
4509;DHT22;2267;48.816;9.230;2023-04-25T04:03:29;12.00;97.40
4509;DHT22;2267;48.816;9.230;2023-04-25T04:05:56;12.00;97.70
4509;DHT22;2267;48.816;9.230;2023-04-25T04:08:23;12.00;97.70
4509;DHT22;2267;48.816;9.230;2023-04-25T04:10:50;12.00;98.00
4509;DHT22;2267;48.816;9.230;2023-04-25T04:13:17;12.00;97.70
4509;DHT22;2267;48.816;9.230;2023-04-25T04:15:44;12.00;97.80
4509;DHT22;2267;48.816;9.230;2023-04-25T04:18:11;12.00;97.70
4509;DHT22;2267;48.816;9.230;2023-04-25T04:20:38;12.00;97.60
4509;DHT22;2267;48.816;9.230;2023-04-25T04:23:05;12.00;97.50
4509;DHT22;2267;48.816;9.230;2023-04-25T04:25:32;12.00;97.60
4509;DHT22;2267;48.816;9.230;2023-04-25T04:27:59;11.90;97.80
4509;DHT22;2267;48.816;9.230;2023-04-25T04:30:27;11.90;97.40
4509;DHT22;2267;48.816;9.230;2023-04-25T04:32:57;11.90;97.60
4509;DHT22;2267;48.816;9.230;2023-04-25T04:35:24;11.90;97.40
4509;DHT22;2267;48.816;9.230;2023-04-25T04:37:51;11.90;97.40
4509;DHT22;2267;48.816;9.230;2023-04-25T04:40:18;11.90;97.20
4509;DHT22;2267;48.816;9.230;2023-04-25T04:42:45;11.90;97.50
4509;DHT22;2267;48.816;9.230;2023-04-25T04:45:13;11.90;97.60
4509;DHT22;2267;48.816;9.230;2023-04-25T04:47:40;11.90;97.40
4509;DHT22;2267;48.816;9.230;2023-04-25T04:50:08;11.90;97.50
4509;DHT22;2267;48.816;9.230;2023-04-25T04:52:36;11.90;97.60
4509;DHT22;2267;48.816;9.230;2023-04-25T04:55:04;11.90;97.60
4509;DHT22;2267;48.816;9.230;2023-04-25T04:57:32;11.90;97.40
4509;DHT22;2267;48.816;9.230;2023-04-25T04:59:59;11.90;97.20
4509;DHT22;2267;48.816;9.230;2023-04-25T05:02:26;11.90;97.30
4509;DHT22;2267;48.816;9.230;2023-04-25T05:04:53;11.90;97.40
4509;DHT22;2267;48.816;9.230;2023-04-25T05:07:20;11.90;97.40
4509;DHT22;2267;48.816;9.230;2023-04-25T05:09:47;11.90;97.30
4509;DHT22;2267;48.816;9.230;2023-04-25T05:12:13;11.80;97.10
4509;DHT22;2267;48.816;9.230;2023-04-25T05:14:40;11.90;97.30
4509;DHT22;2267;48.816;9.230;2023-04-25T05:17:07;11.80;97.40
4509;DHT22;2267;48.816;9.230;2023-04-25T05:19:35;11.90;97.50
4509;DHT22;2267;48.816;9.230;2023-04-25T05:22:02;11.80;97.20
4509;DHT22;2267;48.816;9.230;2023-04-25T05:24:29;11.90;97.40
4509;DHT22;2267;48.816;9.230;2023-04-25T05:26:57;11.90;97.50
4509;DHT22;2267;48.816;9.230;2023-04-25T05:29:24;11.90;97.70
4509;DHT22;2267;48.816;9.230;2023-04-25T05:31:51;11.90;97.80
4509;DHT22;2267;48.816;9.230;2023-04-25T05:34:17;11.90;97.80
4509;DHT22;2267;48.816;9.230;2023-04-25T05:36:44;12.00;97.50
4509;DHT22;2267;48.816;9.230;2023-04-25T05:39:16;12.00;97.40
4509;DHT22;2267;48.816;9.230;2023-04-25T05:41:44;12.00;97.50
4509;DHT22;2267;48.816;9.230;2023-04-25T05:44:10;12.00;97.60
4509;DHT22;2267;48.816;9.230;2023-04-25T05:46:37;11.90;97.80
4509;DHT22;2267;48.816;9.230;2023-04-25T05:49:04;11.90;98.20
4509;DHT22;2267;48.816;9.230;2023-04-25T05:51:31;11.90;98.40
4509;DHT22;2267;48.816;9.230;2023-04-25T05:53:58;11.90;98.70
4509;DHT22;2267;48.816;9.230;2023-04-25T05:56:24;11.90;98.90
4509;DHT22;2267;48.816;9.230;2023-04-25T05:58:52;11.90;99.00
4509;DHT22;2267;48.816;9.230;2023-04-25T06:01:18;11.90;99.70
4509;DHT22;2267;48.816;9.230;2023-04-25T06:03:45;11.80;99.60
4509;DHT22;2267;48.816;9.230;2023-04-25T06:06:13;11.80;99.80
4509;DHT22;2267;48.816;9.230;2023-04-25T06:08:40;11.80;99.70
4509;DHT22;2267;48.816;9.230;2023-04-25T06:11:07;11.80;99.60
4509;DHT22;2267;48.816;9.230;2023-04-25T06:13:34;11.80;99.60
4509;DHT22;2267;48.816;9.230;2023-04-25T06:16:01;11.80;99.40
4509;DHT22;2267;48.816;9.230;2023-04-25T06:18:28;11.80;99.50
4509;DHT22;2267;48.816;9.230;2023-04-25T06:20:55;11.80;99.80
4509;DHT22;2267;48.816;9.230;2023-04-25T06:23:21;11.80;99.90
4509;DHT22;2267;48.816;9.230;2023-04-25T06:25:48;11.90;99.90
4509;DHT22;2267;48.816;9.230;2023-04-25T06:28:15;11.90;99.90
4509;DHT22;2267;48.816;9.230;2023-04-25T06:30:42;11.90;99.50
4509;DHT22;2267;48.816;9.230;2023-04-25T06:33:09;11.90;99.00
4509;DHT22;2267;48.816;9.230;2023-04-25T06:35:39;11.90;98.90
4509;DHT22;2267;48.816;9.230;2023-04-25T06:38:06;11.90;99.30
4509;DHT22;2267;48.816;9.230;2023-04-25T06:40:32;12.00;99.30
4509;DHT22;2267;48.816;9.230;2023-04-25T06:42:59;12.00;99.40
4509;DHT22;2267;48.816;9.230;2023-04-25T06:45:26;12.00;99.50
4509;DHT22;2267;48.816;9.230;2023-04-25T06:47:53;12.00;99.50
4509;DHT22;2267;48.816;9.230;2023-04-25T06:50:20;12.10;99.30
4509;DHT22;2267;48.816;9.230;2023-04-25T06:52:47;12.10;99.00
4509;DHT22;2267;48.816;9.230;2023-04-25T06:55:13;12.10;98.60
4509;DHT22;2267;48.816;9.230;2023-04-25T06:57:40;12.10;98.20
4509;DHT22;2267;48.816;9.230;2023-04-25T07:00:07;12.10;98.40
4509;DHT22;2267;48.816;9.230;2023-04-25T07:02:36;12.10;98.50
4509;DHT22;2267;48.816;9.230;2023-04-25T07:05:03;12.10;98.50
4509;DHT22;2267;48.816;9.230;2023-04-25T07:07:30;12.10;98.40
4509;DHT22;2267;48.816;9.230;2023-04-25T07:09:57;12.20;98.50
4509;DHT22;2267;48.816;9.230;2023-04-25T07:12:24;12.20;98.60
4509;DHT22;2267;48.816;9.230;2023-04-25T07:14:51;12.20;98.70
4509;DHT22;2267;48.816;9.230;2023-04-25T07:17:18;12.20;98.70
4509;DHT22;2267;48.816;9.230;2023-04-25T07:19:45;12.20;98.90
4509;DHT22;2267;48.816;9.230;2023-04-25T07:22:11;12.10;98.80
4509;DHT22;2267;48.816;9.230;2023-04-25T07:24:38;12.20;99.10
4509;DHT22;2267;48.816;9.230;2023-04-25T07:27:05;12.20;98.90
4509;DHT22;2267;48.816;9.230;2023-04-25T07:29:32;12.20;98.80
4509;DHT22;2267;48.816;9.230;2023-04-25T07:32:02;12.10;98.70
4509;DHT22;2267;48.816;9.230;2023-04-25T07:34:29;12.10;98.80
4509;DHT22;2267;48.816;9.230;2023-04-25T07:36:56;12.10;98.90
4509;DHT22;2267;48.816;9.230;2023-04-25T07:39:23;12.10;98.80
4509;DHT22;2267;48.816;9.230;2023-04-25T07:41:50;12.10;98.80
4509;DHT22;2267;48.816;9.230;2023-04-25T07:44:20;12.10;99.00
4509;DHT22;2267;48.816;9.230;2023-04-25T07:46:47;12.10;99.10
4509;DHT22;2267;48.816;9.230;2023-04-25T07:49:14;12.10;99.00
4509;DHT22;2267;48.816;9.230;2023-04-25T07:51:41;12.10;99.10
4509;DHT22;2267;48.816;9.230;2023-04-25T07:54:12;12.10;99.20
4509;DHT22;2267;48.816;9.230;2023-04-25T07:56:38;12.10;99.10
4509;DHT22;2267;48.816;9.230;2023-04-25T07:59:18;12.10;99.30
4509;DHT22;2267;48.816;9.230;2023-04-25T08:01:45;12.00;99.50
4509;DHT22;2267;48.816;9.230;2023-04-25T08:04:12;12.00;99.70
4509;DHT22;2267;48.816;9.230;2023-04-25T08:06:39;12.00;99.90
4509;DHT22;2267;48.816;9.230;2023-04-25T08:09:07;12.00;99.90
4509;DHT22;2267;48.816;9.230;2023-04-25T08:11:36;12.00;99.90
4509;DHT22;2267;48.816;9.230;2023-04-25T08:14:02;12.00;99.90
4509;DHT22;2267;48.816;9.230;2023-04-25T08:16:29;12.00;99.90
4509;DHT22;2267;48.816;9.230;2023-04-25T08:18:56;12.00;99.90
4509;DHT22;2267;48.816;9.230;2023-04-25T08:21:23;12.00;99.90
4509;DHT22;2267;48.816;9.230;2023-04-25T08:23:50;12.00;99.90
4509;DHT22;2267;48.816;9.230;2023-04-25T08:26:17;12.00;99.90
4509;DHT22;2267;48.816;9.230;2023-04-25T08:28:44;12.00;99.90
4509;DHT22;2267;48.816;9.230;2023-04-25T08:31:10;12.00;99.90
4509;DHT22;2267;48.816;9.230;2023-04-25T08:33:37;12.00;99.90
4509;DHT22;2267;48.816;9.230;2023-04-25T08:36:04;12.00;99.90
4509;DHT22;2267;48.816;9.230;2023-04-25T08:38:32;11.90;99.90
4509;DHT22;2267;48.816;9.230;2023-04-25T08:41:00;11.90;99.90
4509;DHT22;2267;48.816;9.230;2023-04-25T08:43:29;11.90;99.90
4509;DHT22;2267;48.816;9.230;2023-04-25T08:45:59;11.90;99.90
4509;DHT22;2267;48.816;9.230;2023-04-25T08:48:27;11.90;99.90
4509;DHT22;2267;48.816;9.230;2023-04-25T08:50:56;11.80;99.90
4509;DHT22;2267;48.816;9.230;2023-04-25T08:53:26;11.80;99.90
4509;DHT22;2267;48.816;9.230;2023-04-25T08:55:56;11.80;99.90
4509;DHT22;2267;48.816;9.230;2023-04-25T08:58:23;11.80;99.90
4509;DHT22;2267;48.816;9.230;2023-04-25T09:00:51;11.80;99.90
4509;DHT22;2267;48.816;9.230;2023-04-25T09:03:19;11.80;99.90
4509;DHT22;2267;48.816;9.230;2023-04-25T09:05:46;11.80;99.90
4509;DHT22;2267;48.816;9.230;2023-04-25T09:08:13;11.80;99.90
4509;DHT22;2267;48.816;9.230;2023-04-25T09:10:40;11.80;99.90
4509;DHT22;2267;48.816;9.230;2023-04-25T09:13:14;11.80;99.90
4509;DHT22;2267;48.816;9.230;2023-04-25T09:15:51;11.80;99.90
4509;DHT22;2267;48.816;9.230;2023-04-25T09:18:32;11.80;99.90
4509;DHT22;2267;48.816;9.230;2023-04-25T09:21:10;11.80;99.90
4509;DHT22;2267;48.816;9.230;2023-04-25T09:23:43;11.80;99.90
4509;DHT22;2267;48.816;9.230;2023-04-25T09:26:18;11.70;99.90
4509;DHT22;2267;48.816;9.230;2023-04-25T09:28:45;11.70;99.90
4509;DHT22;2267;48.816;9.230;2023-04-25T09:31:22;11.70;99.90
4509;DHT22;2267;48.816;9.230;2023-04-25T09:33:59;11.70;99.90
4509;DHT22;2267;48.816;9.230;2023-04-25T09:36:27;11.70;99.90
4509;DHT22;2267;48.816;9.230;2023-04-25T09:38:55;11.70;99.90
4509;DHT22;2267;48.816;9.230;2023-04-25T09:41:24;11.70;99.90
4509;DHT22;2267;48.816;9.230;2023-04-25T09:43:51;11.70;99.90
4509;DHT22;2267;48.816;9.230;2023-04-25T09:46:18;11.60;99.90
4509;DHT22;2267;48.816;9.230;2023-04-25T09:48:51;11.60;99.90
4509;DHT22;2267;48.816;9.230;2023-04-25T09:51:20;11.60;99.90
4509;DHT22;2267;48.816;9.230;2023-04-25T09:53:47;11.60;99.90
4509;DHT22;2267;48.816;9.230;2023-04-25T09:56:19;11.60;99.90
4509;DHT22;2267;48.816;9.230;2023-04-25T09:58:47;11.50;99.90
4509;DHT22;2267;48.816;9.230;2023-04-25T10:01:16;11.50;99.90
4509;DHT22;2267;48.816;9.230;2023-04-25T10:03:44;11.50;99.90
4509;DHT22;2267;48.816;9.230;2023-04-25T10:06:19;11.50;99.90
4509;DHT22;2267;48.816;9.230;2023-04-25T10:08:47;11.40;99.90
4509;DHT22;2267;48.816;9.230;2023-04-25T10:11:16;11.40;99.90
4509;DHT22;2267;48.816;9.230;2023-04-25T10:13:43;11.30;99.90
4509;DHT22;2267;48.816;9.230;2023-04-25T10:16:11;11.30;99.90
4509;DHT22;2267;48.816;9.230;2023-04-25T10:18:38;11.20;99.90
4509;DHT22;2267;48.816;9.230;2023-04-25T10:21:06;11.10;99.90
4509;DHT22;2267;48.816;9.230;2023-04-25T10:23:33;11.10;99.90
4509;DHT22;2267;48.816;9.230;2023-04-25T10:26:01;11.10;99.90
4509;DHT22;2267;48.816;9.230;2023-04-25T10:28:29;11.10;99.90
4509;DHT22;2267;48.816;9.230;2023-04-25T10:31:07;11.10;99.90
4509;DHT22;2267;48.816;9.230;2023-04-25T10:33:39;11.00;99.90
4509;DHT22;2267;48.816;9.230;2023-04-25T10:36:23;11.00;99.90
4509;DHT22;2267;48.816;9.230;2023-04-25T10:38:51;11.00;99.90
4509;DHT22;2267;48.816;9.230;2023-04-25T10:41:18;11.00;99.90
4509;DHT22;2267;48.816;9.230;2023-04-25T10:43:47;10.90;99.90
4509;DHT22;2267;48.816;9.230;2023-04-25T10:46:25;11.00;99.90
4509;DHT22;2267;48.816;9.230;2023-04-25T10:48:53;10.90;99.90
4509;DHT22;2267;48.816;9.230;2023-04-25T10:51:25;10.90;99.90
4509;DHT22;2267;48.816;9.230;2023-04-25T10:54:05;10.90;99.90
4509;DHT22;2267;48.816;9.230;2023-04-25T10:56:40;10.90;99.90
4509;DHT22;2267;48.816;9.230;2023-04-25T11:01:43;10.90;99.90
4509;DHT22;2267;48.816;9.230;2023-04-25T11:04:30;11.00;99.90
4509;DHT22;2267;48.816;9.230;2023-04-25T11:07:20;11.00;99.90
4509;DHT22;2267;48.816;9.230;2023-04-25T11:09:50;11.00;99.90
4509;DHT22;2267;48.816;9.230;2023-04-25T11:12:17;10.90;99.90
4509;DHT22;2267;48.816;9.230;2023-04-25T11:14:44;10.90;99.90
4509;DHT22;2267;48.816;9.230;2023-04-25T11:17:12;10.90;99.90
4509;DHT22;2267;48.816;9.230;2023-04-25T11:19:39;10.90;99.90
4509;DHT22;2267;48.816;9.230;2023-04-25T11:22:06;11.00;99.90
4509;DHT22;2267;48.816;9.230;2023-04-25T11:24:35;10.90;99.90
4509;DHT22;2267;48.816;9.230;2023-04-25T11:27:03;11.00;99.90
4509;DHT22;2267;48.816;9.230;2023-04-25T11:29:31;11.00;99.90
4509;DHT22;2267;48.816;9.230;2023-04-25T11:32:00;11.00;99.90
4509;DHT22;2267;48.816;9.230;2023-04-25T11:34:28;11.10;99.90
4509;DHT22;2267;48.816;9.230;2023-04-25T11:37:00;11.10;99.90
4509;DHT22;2267;48.816;9.230;2023-04-25T11:39:29;11.10;99.90
4509;DHT22;2267;48.816;9.230;2023-04-25T11:41:56;11.10;99.90
4509;DHT22;2267;48.816;9.230;2023-04-25T11:44:23;11.20;99.90
4509;DHT22;2267;48.816;9.230;2023-04-25T11:46:50;11.10;99.90
4509;DHT22;2267;48.816;9.230;2023-04-25T11:49:17;11.20;99.90
4509;DHT22;2267;48.816;9.230;2023-04-25T11:51:48;11.20;99.90
4509;DHT22;2267;48.816;9.230;2023-04-25T11:54:16;11.20;99.90
4509;DHT22;2267;48.816;9.230;2023-04-25T11:56:44;11.20;99.90
4509;DHT22;2267;48.816;9.230;2023-04-25T11:59:12;11.20;99.90
4509;DHT22;2267;48.816;9.230;2023-04-25T12:01:41;11.30;99.90
4509;DHT22;2267;48.816;9.230;2023-04-25T12:04:16;11.20;99.90
4509;DHT22;2267;48.816;9.230;2023-04-25T12:06:45;11.30;99.90
4509;DHT22;2267;48.816;9.230;2023-04-25T12:09:19;11.30;99.90
4509;DHT22;2267;48.816;9.230;2023-04-25T12:11:52;11.30;99.90
4509;DHT22;2267;48.816;9.230;2023-04-25T12:14:28;11.30;99.90
4509;DHT22;2267;48.816;9.230;2023-04-25T12:16:57;11.40;99.90
4509;DHT22;2267;48.816;9.230;2023-04-25T12:19:25;11.30;99.90
4509;DHT22;2267;48.816;9.230;2023-04-25T12:21:52;11.40;99.90
4509;DHT22;2267;48.816;9.230;2023-04-25T12:24:26;11.30;99.90
4509;DHT22;2267;48.816;9.230;2023-04-25T12:27:02;11.40;99.90
4509;DHT22;2267;48.816;9.230;2023-04-25T12:29:31;11.40;99.90
4509;DHT22;2267;48.816;9.230;2023-04-25T12:32:14;11.30;99.90
4509;DHT22;2267;48.816;9.230;2023-04-25T12:34:41;11.40;99.90
4509;DHT22;2267;48.816;9.230;2023-04-25T12:37:09;11.30;99.90
4509;DHT22;2267;48.816;9.230;2023-04-25T12:39:36;11.30;99.90
4509;DHT22;2267;48.816;9.230;2023-04-25T12:42:03;11.30;99.90
4509;DHT22;2267;48.816;9.230;2023-04-25T12:44:33;11.30;99.90
4509;DHT22;2267;48.816;9.230;2023-04-25T12:47:00;11.20;99.90
4509;DHT22;2267;48.816;9.230;2023-04-25T12:49:27;11.20;99.90
4509;DHT22;2267;48.816;9.230;2023-04-25T12:51:54;11.20;99.90
4509;DHT22;2267;48.816;9.230;2023-04-25T12:54:21;11.20;99.90
4509;DHT22;2267;48.816;9.230;2023-04-25T12:56:48;11.30;99.90
4509;DHT22;2267;48.816;9.230;2023-04-25T12:59:16;11.30;99.90
4509;DHT22;2267;48.816;9.230;2023-04-25T13:01:43;11.40;99.90
4509;DHT22;2267;48.816;9.230;2023-04-25T13:04:12;11.40;99.90
4509;DHT22;2267;48.816;9.230;2023-04-25T13:06:39;11.40;99.90
4509;DHT22;2267;48.816;9.230;2023-04-25T13:09:06;11.50;99.90
4509;DHT22;2267;48.816;9.230;2023-04-25T13:11:33;11.50;99.90
4509;DHT22;2267;48.816;9.230;2023-04-25T13:14:00;11.60;99.90
4509;DHT22;2267;48.816;9.230;2023-04-25T13:16:27;11.70;99.90
4509;DHT22;2267;48.816;9.230;2023-04-25T13:18:54;11.80;99.90
4509;DHT22;2267;48.816;9.230;2023-04-25T13:21:22;11.90;99.90
4509;DHT22;2267;48.816;9.230;2023-04-25T13:23:49;11.90;99.90
4509;DHT22;2267;48.816;9.230;2023-04-25T13:26:17;11.90;99.90
4509;DHT22;2267;48.816;9.230;2023-04-25T13:28:44;12.00;99.90
4509;DHT22;2267;48.816;9.230;2023-04-25T13:31:11;12.00;99.90
4509;DHT22;2267;48.816;9.230;2023-04-25T13:33:38;12.10;99.90
4509;DHT22;2267;48.816;9.230;2023-04-25T13:36:05;12.10;99.90
4509;DHT22;2267;48.816;9.230;2023-04-25T13:38:32;12.20;99.90
4509;DHT22;2267;48.816;9.230;2023-04-25T13:40:59;12.20;99.90
4509;DHT22;2267;48.816;9.230;2023-04-25T13:43:27;12.20;99.90
4509;DHT22;2267;48.816;9.230;2023-04-25T13:45:54;12.30;99.90
4509;DHT22;2267;48.816;9.230;2023-04-25T13:48:21;12.20;99.90
4509;DHT22;2267;48.816;9.230;2023-04-25T13:50:49;12.30;99.90
4509;DHT22;2267;48.816;9.230;2023-04-25T13:53:16;12.20;99.90
4509;DHT22;2267;48.816;9.230;2023-04-25T13:55:42;12.20;99.90
4509;DHT22;2267;48.816;9.230;2023-04-25T13:58:09;12.20;99.90
4509;DHT22;2267;48.816;9.230;2023-04-25T14:00:38;12.30;99.90
4509;DHT22;2267;48.816;9.230;2023-04-25T14:03:06;12.30;99.90
4509;DHT22;2267;48.816;9.230;2023-04-25T14:05:36;12.50;99.90
4509;DHT22;2267;48.816;9.230;2023-04-25T14:08:08;12.70;99.90
4509;DHT22;2267;48.816;9.230;2023-04-25T14:10:36;12.90;99.90
4509;DHT22;2267;48.816;9.230;2023-04-25T14:13:03;13.00;99.90
4509;DHT22;2267;48.816;9.230;2023-04-25T14:15:34;13.20;99.90
4509;DHT22;2267;48.816;9.230;2023-04-25T14:18:01;13.20;99.90
4509;DHT22;2267;48.816;9.230;2023-04-25T14:20:28;13.30;99.90
4509;DHT22;2267;48.816;9.230;2023-04-25T14:22:56;13.50;99.90
4509;DHT22;2267;48.816;9.230;2023-04-25T14:25:24;13.60;99.90
4509;DHT22;2267;48.816;9.230;2023-04-25T14:27:51;13.70;98.60
4509;DHT22;2267;48.816;9.230;2023-04-25T14:30:20;13.80;99.10
4509;DHT22;2267;48.816;9.230;2023-04-25T14:32:49;14.00;99.30
4509;DHT22;2267;48.816;9.230;2023-04-25T14:35:16;14.10;99.40
4509;DHT22;2267;48.816;9.230;2023-04-25T14:37:43;14.20;99.40
4509;DHT22;2267;48.816;9.230;2023-04-25T14:40:11;14.20;98.80
4509;DHT22;2267;48.816;9.230;2023-04-25T14:42:39;14.10;98.60
4509;DHT22;2267;48.816;9.230;2023-04-25T14:45:07;14.10;98.50
4509;DHT22;2267;48.816;9.230;2023-04-25T14:47:36;14.00;98.10
4509;DHT22;2267;48.816;9.230;2023-04-25T14:50:04;14.00;98.30
4509;DHT22;2267;48.816;9.230;2023-04-25T14:52:31;13.90;98.00
4509;DHT22;2267;48.816;9.230;2023-04-25T14:54:58;14.00;98.50
4509;DHT22;2267;48.816;9.230;2023-04-25T14:57:26;13.90;98.00
4509;DHT22;2267;48.816;9.230;2023-04-25T14:59:53;13.90;98.50
4509;DHT22;2267;48.816;9.230;2023-04-25T15:02:20;13.80;98.60
4509;DHT22;2267;48.816;9.230;2023-04-25T15:04:48;13.80;99.00
4509;DHT22;2267;48.816;9.230;2023-04-25T15:07:15;13.70;98.70
4509;DHT22;2267;48.816;9.230;2023-04-25T15:09:44;13.80;98.50
4509;DHT22;2267;48.816;9.230;2023-04-25T15:12:11;13.90;98.00
4509;DHT22;2267;48.816;9.230;2023-04-25T15:14:38;14.10;97.80
4509;DHT22;2267;48.816;9.230;2023-04-25T15:17:05;14.10;97.60
4509;DHT22;2267;48.816;9.230;2023-04-25T15:19:32;14.10;97.20
4509;DHT22;2267;48.816;9.230;2023-04-25T15:21:59;14.10;97.50
4509;DHT22;2267;48.816;9.230;2023-04-25T15:24:28;14.10;97.30
4509;DHT22;2267;48.816;9.230;2023-04-25T15:26:55;14.30;97.70
4509;DHT22;2267;48.816;9.230;2023-04-25T15:29:22;14.30;97.60
4509;DHT22;2267;48.816;9.230;2023-04-25T15:31:48;14.30;97.40
4509;DHT22;2267;48.816;9.230;2023-04-25T15:34:15;14.30;97.40
4509;DHT22;2267;48.816;9.230;2023-04-25T15:36:42;14.30;97.00
4509;DHT22;2267;48.816;9.230;2023-04-25T15:39:09;14.20;96.50
4509;DHT22;2267;48.816;9.230;2023-04-25T15:41:36;14.20;96.80
4509;DHT22;2267;48.816;9.230;2023-04-25T15:44:03;14.10;97.00
4509;DHT22;2267;48.816;9.230;2023-04-25T15:46:31;14.10;97.20
4509;DHT22;2267;48.816;9.230;2023-04-25T15:48:58;14.00;97.20
4509;DHT22;2267;48.816;9.230;2023-04-25T15:51:24;14.00;97.50
4509;DHT22;2267;48.816;9.230;2023-04-25T15:53:52;13.90;97.80
4509;DHT22;2267;48.816;9.230;2023-04-25T15:56:19;13.90;97.50
4509;DHT22;2267;48.816;9.230;2023-04-25T15:58:47;13.90;97.10
4509;DHT22;2267;48.816;9.230;2023-04-25T16:01:14;13.80;97.20
4509;DHT22;2267;48.816;9.230;2023-04-25T16:03:41;13.80;97.40
4509;DHT22;2267;48.816;9.230;2023-04-25T16:06:08;13.80;97.60
4509;DHT22;2267;48.816;9.230;2023-04-25T16:08:35;13.80;97.60